»·PEaware :: SWA5354 KLAS-KSAN

SWA5354 :: KLAS-KSAN

FLIGHT INFORMATION

Flight Status: Arrived
Operator:
Southwest Airlines
More flights by this operator :: More flights under this callsign
Pilot: Hassan P. (16390)
Aircraft: BOEING 737-800
(B738)
More flights by this aircraft type
Origin: KLAS McCarran Intl
United States
Destination: KSAN San Diego Intl-Lindbergh
United States
More flights between these airports :: More routes between these airports
Route: +BOACH8 LVELL LUCKI1
File this flight plan on PilotEdge
Remarks:
Altitude:
(Current/Filed)
28,000ft
Speed:
(Current/Filed)
439kts
Departed: 21-Jul-18 06:03 PM
Arrived: 21-Jul-18 06:52 PM
Distance/Time
Traveled:
225nm/0:49
Distance/Time
To Go:
Arrived

Flight Plot

Page will automatically refresh every two minutes.

Flight plan parsing failed; only flown route is shown


Map Options




Map Legend


Flown Route
Filed Route
Departure Airport
Arrival Airport
Navaid (VOR, NDB)
Fix

Horizontal Profiles

Position Reports

Time Latitude Longitude Heading Altitude Ground
Speed
21-Jul-18 17:46 36.079623 -115.146677 30 2119ft 0kts
21-Jul-18 17:47 36.079623 -115.146677 30 2119ft 0kts
21-Jul-18 17:48 36.079623 -115.146677 30 2119ft 0kts
21-Jul-18 17:49 36.079623 -115.146677 30 2119ft 0kts
21-Jul-18 17:50 36.079623 -115.146677 30 2119ft 0kts
21-Jul-18 17:51 36.079623 -115.146677 30 2119ft 0kts
21-Jul-18 17:52 36.079623 -115.146677 30 2119ft 0kts
21-Jul-18 17:53 36.079623 -115.146677 30 2119ft 0kts
21-Jul-18 17:54 36.079262 -115.146922 28 2119ft 2kts
21-Jul-18 17:55 36.078962 -115.147125 29 2119ft 0kts
21-Jul-18 17:56 36.078962 -115.147125 29 2119ft 0kts
21-Jul-18 17:57 36.078616 -115.147768 210 2119ft 8kts
21-Jul-18 17:58 36.078046 -115.151516 270 2119ft 6kts
21-Jul-18 17:59 36.078036 -115.155666 269 2119ft 16kts
21-Jul-18 18:00 36.078020 -115.160715 264 2119ft 8kts
21-Jul-18 18:01 36.077466 -115.161271 182 2119ft 0kts
21-Jul-18 18:02 36.077466 -115.161271 182 2119ft 0kts
21-Jul-18 18:03 36.077104 -115.161283 180 2119ft 9kts
21-Jul-18 18:04 36.076462 -115.143283 89 2120ft 159kts
21-Jul-18 18:05 36.076629 -115.071780 93 3890ft 258kts
21-Jul-18 18:06 36.072966 -114.981047 108 5685ft 275kts
21-Jul-18 18:07 36.012169 -114.925587 156 7643ft 287kts
21-Jul-18 18:08 35.937025 -114.939100 219 9675ft 301kts
21-Jul-18 18:09 35.874539 -115.011537 222 11715ft 331kts
21-Jul-18 18:10 35.808491 -115.095821 229 13742ft 350kts
21-Jul-18 18:11 35.747250 -115.189750 229 15751ft 356kts
21-Jul-18 18:12 35.679595 -115.278414 204 17754ft 359kts
21-Jul-18 18:13 35.581086 -115.295875 181 19790ft 365kts
21-Jul-18 18:14 35.478774 -115.300951 181 21800ft 374kts
21-Jul-18 18:15 35.373725 -115.305546 180 23812ft 383kts
21-Jul-18 18:16 35.270381 -115.309868 180 25740ft 393kts
21-Jul-18 18:17 35.160023 -115.314378 180 27685ft 405kts
21-Jul-18 18:18 35.047355 -115.318922 180 28004ft 405kts
21-Jul-18 18:19 34.932106 -115.323521 180 28003ft 428kts
21-Jul-18 18:20 34.812174 -115.328276 180 28003ft 439kts
21-Jul-18 18:21 34.694520 -115.367268 197 28006ft 444kts
21-Jul-18 18:22 34.578856 -115.418251 197 28064ft 445kts
21-Jul-18 18:23 34.462505 -115.469244 197 28092ft 445kts
21-Jul-18 18:24 34.346772 -115.519737 197 28091ft 445kts
21-Jul-18 18:25 34.237985 -115.591995 208 28090ft 450kts
21-Jul-18 18:26 34.126000 -115.653421 198 28089ft 446kts
21-Jul-18 18:27 34.011821 -115.707543 198 28018ft 446kts
21-Jul-18 18:28 33.897653 -115.761720 199 27876ft 446kts
21-Jul-18 18:29 33.791674 -115.813811 199 27198ft 446kts
21-Jul-18 18:30 33.678136 -115.867676 198 25845ft 450kts
21-Jul-18 18:31 33.562580 -115.921741 199 24479ft 455kts
21-Jul-18 18:32 33.474933 -116.018312 230 23860ft 399kts
21-Jul-18 18:33 33.414311 -116.120971 231 23880ft 398kts
21-Jul-18 18:34 33.350686 -116.228993 228 22572ft 393kts
21-Jul-18 18:35 33.264895 -116.293271 204 20205ft 358kts
21-Jul-18 18:36 33.178794 -116.343674 204 18022ft 343kts
21-Jul-18 18:37 33.094887 -116.392659 204 15927ft 334kts
21-Jul-18 18:38 33.016696 -116.438259 204 13779ft 300kts
21-Jul-18 18:39 32.951799 -116.497930 219 12021ft 294kts
21-Jul-18 18:40 32.890376 -116.559921 219 10649ft 290kts
21-Jul-18 18:41 32.829520 -116.621233 219 9261ft 285kts
21-Jul-18 18:42 32.774758 -116.676734 225 7977ft 262kts
21-Jul-18 18:43 32.740466 -116.744438 240 6914ft 262kts
21-Jul-18 18:44 32.706662 -116.816853 240 6007ft 254kts
21-Jul-18 18:45 32.683491 -116.889353 250 4957ft 214kts
21-Jul-18 18:46 32.671966 -116.953020 289 3883ft 193kts
21-Jul-18 18:47 32.686864 -117.006790 287 3054ft 182kts
21-Jul-18 18:48 32.699207 -117.054994 287 2312ft 154kts
21-Jul-18 18:49 32.709005 -117.092667 291 1696ft 154kts
21-Jul-18 18:50 32.717265 -117.122648 286 1143ft 153kts
21-Jul-18 18:51 32.727219 -117.163775 285 395ft 142kts
21-Jul-18 18:52 32.735581 -117.198164 286 25ft 52kts
21-Jul-18 18:53 32.735213 -117.200830 108 25ft 14kts

Navigation Log

Ident Type
Flight plan parsing failed, navigation log unavailable